sensor_id;sensor_type;location;lat;lon;timestamp;P1;durP1;ratioP1;P2;durP2;ratioP2
48522;SDS011;34315;50.150;11.070;2022-10-31T00:02:26;41.15;;;7.50;;
48522;SDS011;34315;50.150;11.070;2022-10-31T00:07:26;27.75;;;7.25;;
48522;SDS011;34315;50.150;11.070;2022-10-31T00:12:26;20.77;;;7.70;;
48522;SDS011;34315;50.150;11.070;2022-10-31T00:17:27;21.88;;;7.18;;
48522;SDS011;34315;50.150;11.070;2022-10-31T00:22:27;25.77;;;6.63;;
48522;SDS011;34315;50.150;11.070;2022-10-31T00:27:28;19.55;;;6.40;;
48522;SDS011;34315;50.150;11.070;2022-10-31T00:32:29;26.50;;;6.05;;
48522;SDS011;34315;50.150;11.070;2022-10-31T00:37:31;15.65;;;5.80;;
48522;SDS011;34315;50.150;11.070;2022-10-31T00:42:31;11.43;;;6.00;;
48522;SDS011;34315;50.150;11.070;2022-10-31T00:47:32;14.60;;;5.95;;
48522;SDS011;34315;50.150;11.070;2022-10-31T00:52:32;11.77;;;5.68;;
48522;SDS011;34315;50.150;11.070;2022-10-31T00:57:33;11.80;;;5.75;;
48522;SDS011;34315;50.150;11.070;2022-10-31T01:02:33;17.88;;;6.25;;
48522;SDS011;34315;50.150;11.070;2022-10-31T01:07:38;13.98;;;5.88;;
48522;SDS011;34315;50.150;11.070;2022-10-31T01:12:43;19.92;;;7.28;;
48522;SDS011;34315;50.150;11.070;2022-10-31T01:17:45;15.25;;;6.00;;
48522;SDS011;34315;50.150;11.070;2022-10-31T01:22:46;31.13;;;8.15;;
48522;SDS011;34315;50.150;11.070;2022-10-31T01:27:46;22.48;;;6.97;;
48522;SDS011;34315;50.150;11.070;2022-10-31T01:32:47;32.13;;;6.25;;
48522;SDS011;34315;50.150;11.070;2022-10-31T01:37:47;36.72;;;6.50;;
48522;SDS011;34315;50.150;11.070;2022-10-31T01:42:48;24.40;;;5.90;;
48522;SDS011;34315;50.150;11.070;2022-10-31T01:47:48;35.15;;;6.80;;
48522;SDS011;34315;50.150;11.070;2022-10-31T01:52:49;21.55;;;5.75;;
48522;SDS011;34315;50.150;11.070;2022-10-31T01:57:51;13.75;;;5.85;;
48522;SDS011;34315;50.150;11.070;2022-10-31T02:02:54;15.30;;;5.45;;
48522;SDS011;34315;50.150;11.070;2022-10-31T02:13:04;22.58;;;6.57;;
48522;SDS011;34315;50.150;11.070;2022-10-31T02:18:09;24.08;;;6.53;;
48522;SDS011;34315;50.150;11.070;2022-10-31T02:49:56;20.35;;;5.32;;
48522;SDS011;34315;50.150;11.070;2022-10-31T03:00:31;8.85;;;5.30;;
48522;SDS011;34315;50.150;11.070;2022-10-31T03:05:45;11.23;;;5.10;;
48522;SDS011;34315;50.150;11.070;2022-10-31T03:10:55;12.20;;;5.68;;
48522;SDS011;34315;50.150;11.070;2022-10-31T03:16:04;15.23;;;5.82;;
48522;SDS011;34315;50.150;11.070;2022-10-31T03:21:09;21.65;;;5.53;;
48522;SDS011;34315;50.150;11.070;2022-10-31T03:26:15;19.02;;;5.80;;
48522;SDS011;34315;50.150;11.070;2022-10-31T03:31:16;16.23;;;5.13;;
48522;SDS011;34315;50.150;11.070;2022-10-31T03:36:18;13.63;;;5.47;;
48522;SDS011;34315;50.150;11.070;2022-10-31T03:41:20;14.88;;;5.22;;
48522;SDS011;34315;50.150;11.070;2022-10-31T03:46:22;15.13;;;5.30;;
48522;SDS011;34315;50.150;11.070;2022-10-31T03:51:32;14.18;;;5.40;;
48522;SDS011;34315;50.150;11.070;2022-10-31T03:57:05;20.98;;;5.85;;
48522;SDS011;34315;50.150;11.070;2022-10-31T04:02:32;16.15;;;5.45;;
48522;SDS011;34315;50.150;11.070;2022-10-31T04:07:35;42.92;;;6.55;;
48522;SDS011;34315;50.150;11.070;2022-10-31T04:12:42;19.88;;;5.88;;
48522;SDS011;34315;50.150;11.070;2022-10-31T04:17:51;24.55;;;6.10;;
48522;SDS011;34315;50.150;11.070;2022-10-31T04:22:54;10.65;;;5.30;;
48522;SDS011;34315;50.150;11.070;2022-10-31T04:27:54;16.20;;;5.68;;
48522;SDS011;34315;50.150;11.070;2022-10-31T04:32:57;11.50;;;5.82;;
48522;SDS011;34315;50.150;11.070;2022-10-31T04:37:57;10.93;;;5.25;;
48522;SDS011;34315;50.150;11.070;2022-10-31T04:42:58;18.13;;;5.82;;
48522;SDS011;34315;50.150;11.070;2022-10-31T04:47:58;18.50;;;6.40;;
48522;SDS011;34315;50.150;11.070;2022-10-31T04:52:59;14.63;;;5.35;;
48522;SDS011;34315;50.150;11.070;2022-10-31T04:58:03;33.40;;;5.75;;
48522;SDS011;34315;50.150;11.070;2022-10-31T05:03:03;42.03;;;6.07;;
48522;SDS011;34315;50.150;11.070;2022-10-31T05:08:04;20.20;;;5.30;;
48522;SDS011;34315;50.150;11.070;2022-10-31T05:13:06;10.85;;;4.95;;
48522;SDS011;34315;50.150;11.070;2022-10-31T05:18:25;8.35;;;5.07;;
48522;SDS011;34315;50.150;11.070;2022-10-31T05:23:54;12.18;;;5.20;;
48522;SDS011;34315;50.150;11.070;2022-10-31T05:28:57;12.77;;;4.40;;
48522;SDS011;34315;50.150;11.070;2022-10-31T05:33:58;9.82;;;4.45;;
48522;SDS011;34315;50.150;11.070;2022-10-31T05:39:25;23.08;;;5.60;;
48522;SDS011;34315;50.150;11.070;2022-10-31T05:44:29;10.73;;;5.95;;
48522;SDS011;34315;50.150;11.070;2022-10-31T05:49:40;14.60;;;6.28;;
48522;SDS011;34315;50.150;11.070;2022-10-31T05:55:10;38.15;;;6.03;;
48522;SDS011;34315;50.150;11.070;2022-10-31T06:00:14;42.97;;;6.55;;
48522;SDS011;34315;50.150;11.070;2022-10-31T06:05:23;34.70;;;6.82;;
48522;SDS011;34315;50.150;11.070;2022-10-31T06:10:24;35.13;;;6.00;;
48522;SDS011;34315;50.150;11.070;2022-10-31T06:15:28;36.55;;;6.70;;
48522;SDS011;34315;50.150;11.070;2022-10-31T06:20:29;29.73;;;5.35;;
48522;SDS011;34315;50.150;11.070;2022-10-31T06:25:35;16.02;;;5.80;;
48522;SDS011;34315;50.150;11.070;2022-10-31T06:30:37;18.38;;;5.90;;
48522;SDS011;34315;50.150;11.070;2022-10-31T06:35:40;18.00;;;5.38;;
48522;SDS011;34315;50.150;11.070;2022-10-31T06:40:45;17.23;;;5.82;;
48522;SDS011;34315;50.150;11.070;2022-10-31T06:45:56;25.65;;;5.68;;
48522;SDS011;34315;50.150;11.070;2022-10-31T06:51:20;21.23;;;5.38;;
48522;SDS011;34315;50.150;11.070;2022-10-31T06:56:23;15.60;;;5.25;;
48522;SDS011;34315;50.150;11.070;2022-10-31T07:01:27;18.38;;;5.40;;
48522;SDS011;34315;50.150;11.070;2022-10-31T07:06:28;19.17;;;4.88;;
48522;SDS011;34315;50.150;11.070;2022-10-31T07:11:28;20.05;;;5.03;;
48522;SDS011;34315;50.150;11.070;2022-10-31T07:16:30;11.45;;;5.60;;
48522;SDS011;34315;50.150;11.070;2022-10-31T07:21:31;15.40;;;6.45;;
48522;SDS011;34315;50.150;11.070;2022-10-31T07:26:32;18.38;;;6.80;;
48522;SDS011;34315;50.150;11.070;2022-10-31T07:31:32;12.32;;;6.20;;
48522;SDS011;34315;50.150;11.070;2022-10-31T07:36:38;9.07;;;5.10;;
48522;SDS011;34315;50.150;11.070;2022-10-31T07:41:39;11.25;;;5.43;;
48522;SDS011;34315;50.150;11.070;2022-10-31T07:46:40;9.80;;;5.13;;
48522;SDS011;34315;50.150;11.070;2022-10-31T07:52:06;9.48;;;5.97;;
48522;SDS011;34315;50.150;11.070;2022-10-31T07:57:25;8.15;;;5.97;;
48522;SDS011;34315;50.150;11.070;2022-10-31T08:02:26;9.00;;;5.70;;
48522;SDS011;34315;50.150;11.070;2022-10-31T08:08:05;20.75;;;5.07;;
48522;SDS011;34315;50.150;11.070;2022-10-31T08:13:06;8.43;;;5.22;;
48522;SDS011;34315;50.150;11.070;2022-10-31T08:18:14;7.60;;;5.10;;
48522;SDS011;34315;50.150;11.070;2022-10-31T08:23:15;9.65;;;4.63;;
48522;SDS011;34315;50.150;11.070;2022-10-31T08:28:17;8.52;;;4.60;;
48522;SDS011;34315;50.150;11.070;2022-10-31T08:33:19;8.82;;;4.78;;
48522;SDS011;34315;50.150;11.070;2022-10-31T08:38:58;6.38;;;4.40;;
48522;SDS011;34315;50.150;11.070;2022-10-31T08:44:01;8.95;;;5.05;;
48522;SDS011;34315;50.150;11.070;2022-10-31T08:49:01;7.68;;;5.32;;
48522;SDS011;34315;50.150;11.070;2022-10-31T08:54:02;8.48;;;5.10;;
48522;SDS011;34315;50.150;11.070;2022-10-31T08:59:21;6.82;;;5.07;;
48522;SDS011;34315;50.150;11.070;2022-10-31T09:04:42;7.97;;;5.20;;
48522;SDS011;34315;50.150;11.070;2022-10-31T09:09:42;6.32;;;4.18;;
48522;SDS011;34315;50.150;11.070;2022-10-31T09:14:43;8.35;;;4.97;;
48522;SDS011;34315;50.150;11.070;2022-10-31T09:20:02;8.27;;;5.18;;
48522;SDS011;34315;50.150;11.070;2022-10-31T09:25:07;7.63;;;4.53;;
48522;SDS011;34315;50.150;11.070;2022-10-31T09:30:08;11.35;;;4.47;;
48522;SDS011;34315;50.150;11.070;2022-10-31T09:35:09;9.95;;;4.40;;
48522;SDS011;34315;50.150;11.070;2022-10-31T09:40:10;8.38;;;4.90;;
48522;SDS011;34315;50.150;11.070;2022-10-31T09:55:57;10.18;;;4.68;;
48522;SDS011;34315;50.150;11.070;2022-10-31T10:00:59;12.68;;;5.63;;
48522;SDS011;34315;50.150;11.070;2022-10-31T10:06:21;10.25;;;5.50;;
48522;SDS011;34315;50.150;11.070;2022-10-31T10:11:52;9.68;;;5.32;;
48522;SDS011;34315;50.150;11.070;2022-10-31T10:17:02;11.10;;;5.50;;
48522;SDS011;34315;50.150;11.070;2022-10-31T10:27:47;11.40;;;6.35;;
48522;SDS011;34315;50.150;11.070;2022-10-31T10:32:51;14.98;;;7.00;;
48522;SDS011;34315;50.150;11.070;2022-10-31T10:37:57;13.98;;;6.05;;
48522;SDS011;34315;50.150;11.070;2022-10-31T10:43:21;10.48;;;5.35;;
48522;SDS011;34315;50.150;11.070;2022-10-31T10:48:30;16.23;;;5.72;;
48522;SDS011;34315;50.150;11.070;2022-10-31T10:53:43;13.00;;;5.80;;
48522;SDS011;34315;50.150;11.070;2022-10-31T10:59:00;12.15;;;5.15;;
48522;SDS011;34315;50.150;11.070;2022-10-31T11:04:02;10.35;;;5.47;;
48522;SDS011;34315;50.150;11.070;2022-10-31T11:09:14;9.30;;;4.55;;
48522;SDS011;34315;50.150;11.070;2022-10-31T11:14:15;12.57;;;5.40;;
48522;SDS011;34315;50.150;11.070;2022-10-31T11:19:24;9.82;;;4.80;;
48522;SDS011;34315;50.150;11.070;2022-10-31T11:24:26;11.85;;;4.90;;
48522;SDS011;34315;50.150;11.070;2022-10-31T11:29:27;9.75;;;4.57;;
48522;SDS011;34315;50.150;11.070;2022-10-31T11:39:29;10.98;;;4.82;;
48522;SDS011;34315;50.150;11.070;2022-10-31T11:44:30;10.95;;;4.60;;
48522;SDS011;34315;50.150;11.070;2022-10-31T11:54:35;9.25;;;4.18;;
48522;SDS011;34315;50.150;11.070;2022-10-31T11:59:50;14.43;;;4.68;;
48522;SDS011;34315;50.150;11.070;2022-10-31T12:04:54;12.48;;;5.40;;
48522;SDS011;34315;50.150;11.070;2022-10-31T12:09:59;11.90;;;5.22;;
48522;SDS011;34315;50.150;11.070;2022-10-31T12:15:03;13.07;;;5.03;;
48522;SDS011;34315;50.150;11.070;2022-10-31T12:25:22;11.52;;;4.68;;
48522;SDS011;34315;50.150;11.070;2022-10-31T12:41:46;10.88;;;4.95;;
48522;SDS011;34315;50.150;11.070;2022-10-31T12:46:56;11.60;;;5.15;;
48522;SDS011;34315;50.150;11.070;2022-10-31T12:52:07;8.70;;;4.78;;
48522;SDS011;34315;50.150;11.070;2022-10-31T12:57:23;8.88;;;4.22;;
48522;SDS011;34315;50.150;11.070;2022-10-31T13:02:29;10.85;;;4.78;;
48522;SDS011;34315;50.150;11.070;2022-10-31T13:13:02;8.98;;;4.60;;
48522;SDS011;34315;50.150;11.070;2022-10-31T13:18:12;9.45;;;5.13;;
48522;SDS011;34315;50.150;11.070;2022-10-31T13:28:35;12.43;;;5.05;;
48522;SDS011;34315;50.150;11.070;2022-10-31T13:33:49;9.57;;;4.80;;
48522;SDS011;34315;50.150;11.070;2022-10-31T13:44:36;14.68;;;6.65;;
48522;SDS011;34315;50.150;11.070;2022-10-31T13:49:38;15.98;;;7.55;;
48522;SDS011;34315;50.150;11.070;2022-10-31T13:54:43;17.50;;;6.68;;
48522;SDS011;34315;50.150;11.070;2022-10-31T13:59:49;12.02;;;5.53;;
48522;SDS011;34315;50.150;11.070;2022-10-31T14:04:53;17.88;;;6.40;;
48522;SDS011;34315;50.150;11.070;2022-10-31T14:09:58;13.95;;;5.93;;
48522;SDS011;34315;50.150;11.070;2022-10-31T14:15:13;15.63;;;5.50;;
48522;SDS011;34315;50.150;11.070;2022-10-31T14:30:27;14.75;;;5.57;;
48522;SDS011;34315;50.150;11.070;2022-10-31T14:35:37;9.27;;;4.70;;
48522;SDS011;34315;50.150;11.070;2022-10-31T14:46:36;9.80;;;4.80;;
48522;SDS011;34315;50.150;11.070;2022-10-31T14:51:50;10.57;;;5.07;;
48522;SDS011;34315;50.150;11.070;2022-10-31T14:56:56;11.10;;;5.60;;
48522;SDS011;34315;50.150;11.070;2022-10-31T15:02:00;12.80;;;5.75;;
48522;SDS011;34315;50.150;11.070;2022-10-31T15:12:27;15.65;;;6.90;;
48522;SDS011;34315;50.150;11.070;2022-10-31T15:17:32;17.58;;;7.03;;
48522;SDS011;34315;50.150;11.070;2022-10-31T15:22:32;20.30;;;7.22;;
48522;SDS011;34315;50.150;11.070;2022-10-31T15:27:32;18.88;;;6.28;;
48522;SDS011;34315;50.150;11.070;2022-10-31T15:32:34;14.55;;;6.15;;
48522;SDS011;34315;50.150;11.070;2022-10-31T15:37:34;17.42;;;6.55;;
48522;SDS011;34315;50.150;11.070;2022-10-31T15:42:41;15.65;;;7.32;;
48522;SDS011;34315;50.150;11.070;2022-10-31T15:47:45;9.90;;;6.40;;
48522;SDS011;34315;50.150;11.070;2022-10-31T15:52:49;13.63;;;7.07;;
48522;SDS011;34315;50.150;11.070;2022-10-31T15:58:00;11.30;;;5.38;;
48522;SDS011;34315;50.150;11.070;2022-10-31T16:03:05;20.48;;;6.22;;
48522;SDS011;34315;50.150;11.070;2022-10-31T16:08:30;20.33;;;7.40;;
48522;SDS011;34315;50.150;11.070;2022-10-31T16:13:35;17.83;;;7.10;;
48522;SDS011;34315;50.150;11.070;2022-10-31T16:18:38;19.60;;;6.85;;
48522;SDS011;34315;50.150;11.070;2022-10-31T16:23:44;21.85;;;10.32;;
48522;SDS011;34315;50.150;11.070;2022-10-31T16:28:52;24.38;;;9.02;;
48522;SDS011;34315;50.150;11.070;2022-10-31T16:39:24;14.15;;;7.03;;
48522;SDS011;34315;50.150;11.070;2022-10-31T16:44:25;12.88;;;7.28;;
48522;SDS011;34315;50.150;11.070;2022-10-31T16:49:26;18.67;;;10.30;;
48522;SDS011;34315;50.150;11.070;2022-10-31T16:54:27;19.80;;;9.48;;
48522;SDS011;34315;50.150;11.070;2022-10-31T16:59:29;17.30;;;9.32;;
48522;SDS011;34315;50.150;11.070;2022-10-31T17:04:30;18.75;;;10.20;;
48522;SDS011;34315;50.150;11.070;2022-10-31T17:09:30;21.40;;;9.05;;
48522;SDS011;34315;50.150;11.070;2022-10-31T17:14:31;20.25;;;11.20;;
48522;SDS011;34315;50.150;11.070;2022-10-31T17:19:32;20.35;;;11.15;;
48522;SDS011;34315;50.150;11.070;2022-10-31T17:24:33;21.80;;;12.35;;
48522;SDS011;34315;50.150;11.070;2022-10-31T17:29:34;42.30;;;25.58;;
48522;SDS011;34315;50.150;11.070;2022-10-31T17:34:35;20.92;;;11.00;;
48522;SDS011;34315;50.150;11.070;2022-10-31T17:39:35;15.55;;;9.77;;
48522;SDS011;34315;50.150;11.070;2022-10-31T17:44:36;18.67;;;11.57;;
48522;SDS011;34315;50.150;11.070;2022-10-31T17:49:36;18.52;;;9.10;;
48522;SDS011;34315;50.150;11.070;2022-10-31T17:54:36;15.48;;;10.05;;
48522;SDS011;34315;50.150;11.070;2022-10-31T17:59:37;20.67;;;10.18;;
48522;SDS011;34315;50.150;11.070;2022-10-31T18:04:37;16.92;;;10.68;;
48522;SDS011;34315;50.150;11.070;2022-10-31T18:09:39;21.77;;;11.75;;
48522;SDS011;34315;50.150;11.070;2022-10-31T18:14:40;24.38;;;11.98;;
48522;SDS011;34315;50.150;11.070;2022-10-31T18:19:41;18.15;;;9.68;;
48522;SDS011;34315;50.150;11.070;2022-10-31T18:24:41;21.90;;;12.65;;
48522;SDS011;34315;50.150;11.070;2022-10-31T18:29:42;20.33;;;11.05;;
48522;SDS011;34315;50.150;11.070;2022-10-31T18:34:42;18.23;;;10.85;;
48522;SDS011;34315;50.150;11.070;2022-10-31T18:39:43;17.33;;;10.63;;
48522;SDS011;34315;50.150;11.070;2022-10-31T18:44:43;20.83;;;11.00;;
48522;SDS011;34315;50.150;11.070;2022-10-31T18:49:43;18.35;;;10.18;;
48522;SDS011;34315;50.150;11.070;2022-10-31T18:54:44;18.25;;;10.15;;
48522;SDS011;34315;50.150;11.070;2022-10-31T18:59:44;15.23;;;9.88;;
48522;SDS011;34315;50.150;11.070;2022-10-31T19:04:45;21.73;;;12.95;;
48522;SDS011;34315;50.150;11.070;2022-10-31T19:09:45;20.95;;;12.27;;
48522;SDS011;34315;50.150;11.070;2022-10-31T19:14:45;19.02;;;12.18;;
48522;SDS011;34315;50.150;11.070;2022-10-31T19:19:47;20.40;;;11.25;;
48522;SDS011;34315;50.150;11.070;2022-10-31T19:24:48;20.48;;;11.05;;
48522;SDS011;34315;50.150;11.070;2022-10-31T19:29:48;18.90;;;12.18;;
48522;SDS011;34315;50.150;11.070;2022-10-31T19:34:49;18.45;;;12.38;;
48522;SDS011;34315;50.150;11.070;2022-10-31T19:39:49;22.58;;;13.80;;
48522;SDS011;34315;50.150;11.070;2022-10-31T19:44:49;30.15;;;16.33;;
48522;SDS011;34315;50.150;11.070;2022-10-31T19:49:50;24.23;;;14.57;;
48522;SDS011;34315;50.150;11.070;2022-10-31T19:54:50;19.40;;;12.68;;
48522;SDS011;34315;50.150;11.070;2022-10-31T19:59:51;19.33;;;11.10;;
48522;SDS011;34315;50.150;11.070;2022-10-31T20:04:51;17.65;;;10.95;;
48522;SDS011;34315;50.150;11.070;2022-10-31T20:09:51;21.85;;;13.43;;
48522;SDS011;34315;50.150;11.070;2022-10-31T20:14:52;26.08;;;13.05;;
48522;SDS011;34315;50.150;11.070;2022-10-31T20:19:52;18.30;;;11.48;;
48522;SDS011;34315;50.150;11.070;2022-10-31T20:24:53;23.20;;;12.05;;
48522;SDS011;34315;50.150;11.070;2022-10-31T20:29:53;21.02;;;10.90;;
48522;SDS011;34315;50.150;11.070;2022-10-31T20:34:53;16.40;;;10.65;;
48522;SDS011;34315;50.150;11.070;2022-10-31T20:39:54;19.85;;;12.45;;
48522;SDS011;34315;50.150;11.070;2022-10-31T20:44:54;21.35;;;13.05;;
48522;SDS011;34315;50.150;11.070;2022-10-31T20:49:55;24.80;;;13.68;;
48522;SDS011;34315;50.150;11.070;2022-10-31T20:54:55;25.00;;;14.38;;
48522;SDS011;34315;50.150;11.070;2022-10-31T20:59:55;19.15;;;11.15;;
48522;SDS011;34315;50.150;11.070;2022-10-31T21:04:56;18.58;;;11.57;;
48522;SDS011;34315;50.150;11.070;2022-10-31T21:09:57;23.45;;;11.20;;
48522;SDS011;34315;50.150;11.070;2022-10-31T21:14:57;17.30;;;11.18;;
48522;SDS011;34315;50.150;11.070;2022-10-31T21:19:58;17.25;;;11.40;;
48522;SDS011;34315;50.150;11.070;2022-10-31T21:24:58;18.83;;;10.95;;
48522;SDS011;34315;50.150;11.070;2022-10-31T21:29:59;18.67;;;12.00;;
48522;SDS011;34315;50.150;11.070;2022-10-31T21:34:59;16.98;;;11.98;;
48522;SDS011;34315;50.150;11.070;2022-10-31T21:40:00;18.23;;;11.70;;
48522;SDS011;34315;50.150;11.070;2022-10-31T21:45:00;24.80;;;12.55;;
48522;SDS011;34315;50.150;11.070;2022-10-31T21:50:01;20.45;;;10.93;;
48522;SDS011;34315;50.150;11.070;2022-10-31T21:55:01;19.83;;;10.10;;
48522;SDS011;34315;50.150;11.070;2022-10-31T22:00:03;14.82;;;9.18;;
48522;SDS011;34315;50.150;11.070;2022-10-31T22:05:06;15.83;;;8.70;;
48522;SDS011;34315;50.150;11.070;2022-10-31T22:10:06;13.00;;;8.90;;
48522;SDS011;34315;50.150;11.070;2022-10-31T22:15:07;12.60;;;7.55;;
48522;SDS011;34315;50.150;11.070;2022-10-31T22:20:08;17.88;;;8.13;;
48522;SDS011;34315;50.150;11.070;2022-10-31T22:25:08;14.43;;;7.72;;
48522;SDS011;34315;50.150;11.070;2022-10-31T22:30:09;14.77;;;8.15;;
48522;SDS011;34315;50.150;11.070;2022-10-31T22:35:10;18.70;;;8.50;;
48522;SDS011;34315;50.150;11.070;2022-10-31T22:40:10;12.23;;;7.90;;
48522;SDS011;34315;50.150;11.070;2022-10-31T22:45:11;11.95;;;7.60;;
48522;SDS011;34315;50.150;11.070;2022-10-31T22:50:12;12.80;;;8.05;;
48522;SDS011;34315;50.150;11.070;2022-10-31T22:55:12;17.13;;;8.07;;
48522;SDS011;34315;50.150;11.070;2022-10-31T23:00:14;9.88;;;7.30;;
48522;SDS011;34315;50.150;11.070;2022-10-31T23:05:15;13.57;;;7.60;;
48522;SDS011;34315;50.150;11.070;2022-10-31T23:10:15;14.48;;;7.43;;
48522;SDS011;34315;50.150;11.070;2022-10-31T23:15:16;13.52;;;7.85;;
48522;SDS011;34315;50.150;11.070;2022-10-31T23:20:16;12.90;;;7.95;;
48522;SDS011;34315;50.150;11.070;2022-10-31T23:25:16;11.55;;;7.10;;
48522;SDS011;34315;50.150;11.070;2022-10-31T23:30:35;14.00;;;7.00;;
48522;SDS011;34315;50.150;11.070;2022-10-31T23:35:36;14.25;;;8.07;;
48522;SDS011;34315;50.150;11.070;2022-10-31T23:40:36;17.73;;;8.02;;
48522;SDS011;34315;50.150;11.070;2022-10-31T23:45:42;16.38;;;8.60;;
48522;SDS011;34315;50.150;11.070;2022-10-31T23:50:45;15.18;;;8.35;;
48522;SDS011;34315;50.150;11.070;2022-10-31T23:55:45;14.15;;;7.95;;
